Boston, Massachusetts
Current Conditions -  °F | °C
As of 11:54 AM on Friday 28 Nov 2014 (Local Time) from KBOS Reporting Station
Broken Clouds Broken Clouds  
Wind Chill: -6°   Ceiling: 9500
Heat Index:   Visibility: 10mi
Dew Point: -6°   Wind: 15mph
Humidity: 66%   Direction: 300°WNW
Pressure: 30.07"   Gusts: 21mph
Location:  42.36°N, 71.06°W
Report Text: KBOS 281654Z 30013G18KT 10SM FEW025 BKN095 00/M06 A3007 RMK AO2 SLP180 T00001056
Loading
Personal Weather Stations






























Interactive Weather Map New forecast layout! Learn more

10-Day Weather Forecast

Advertisements
Track Severe Weather on mobile